createdAt,value
2018-06-03T00:02:22.558Z,15.50
2018-06-03T00:04:50.144Z,15.50
2018-06-03T00:07:17.651Z,15.50
2018-06-03T00:09:45.319Z,15.50
2018-06-03T00:12:12.786Z,15.60
2018-06-03T00:14:40.313Z,15.60
2018-06-03T00:17:08.567Z,15.60
2018-06-03T00:19:36.886Z,15.60
2018-06-03T00:22:04.433Z,15.70
2018-06-03T00:24:31.954Z,15.70
2018-06-03T00:26:59.482Z,15.80
2018-06-03T00:29:28.681Z,15.90
2018-06-03T00:31:56.975Z,16.00
2018-06-03T00:34:25.269Z,16.00
2018-06-03T00:36:53.491Z,16.00
2018-06-03T00:39:21.021Z,16.10
2018-06-03T00:41:50.254Z,16.20
2018-06-03T00:44:17.771Z,16.20
2018-06-03T00:46:45.330Z,16.20
2018-06-03T00:49:12.839Z,16.30
2018-06-03T00:51:40.353Z,16.30
2018-06-03T00:54:07.894Z,16.40
2018-06-03T00:56:47.212Z,16.40
2018-06-03T00:59:15.512Z,16.50
2018-06-03T01:01:43.017Z,16.50
2018-06-03T01:04:10.530Z,16.50
2018-06-03T01:06:38.056Z,16.50
2018-06-03T01:09:06.358Z,16.50
2018-06-03T01:11:34.513Z,16.50
2018-06-03T01:14:02.033Z,16.60
2018-06-03T01:16:30.030Z,16.60
2018-06-03T01:18:58.350Z,16.50
2018-06-03T01:21:26.504Z,16.50
2018-06-03T01:23:54.785Z,16.50
2018-06-03T01:26:22.303Z,16.50
2018-06-03T01:28:49.818Z,16.50
2018-06-03T01:31:17.342Z,16.50
2018-06-03T01:33:45.620Z,16.60
2018-06-03T01:36:14.531Z,16.60
2018-06-03T01:38:42.118Z,16.60
2018-06-03T01:41:09.699Z,16.60
2018-06-03T01:43:37.263Z,16.60
2018-06-03T01:46:04.783Z,16.60
2018-06-03T01:48:33.144Z,16.60
2018-06-03T01:51:01.289Z,16.60
2018-06-03T01:53:29.636Z,16.60
2018-06-03T01:55:57.140Z,16.50
2018-06-03T01:58:24.657Z,16.50
2018-06-03T02:00:52.170Z,16.60
2018-06-03T02:03:19.683Z,16.50
2018-06-03T02:05:47.681Z,16.60
2018-06-03T02:08:15.964Z,16.60
2018-06-03T02:10:43.500Z,16.60
2018-06-03T02:13:11.786Z,16.70
2018-06-03T02:15:40.092Z,16.70
2018-06-03T02:18:07.610Z,16.70
2018-06-03T02:20:35.907Z,16.70
2018-06-03T02:23:03.419Z,16.70
2018-06-03T02:25:30.974Z,16.70
2018-06-03T02:27:58.500Z,16.70
2018-06-03T02:30:26.015Z,16.80
2018-06-03T02:32:53.515Z,16.80
2018-06-03T02:35:21.588Z,16.80
2018-06-03T02:37:49.128Z,16.80
2018-06-03T02:40:16.633Z,16.80
2018-06-03T02:42:44.149Z,16.80
2018-06-03T02:45:11.683Z,16.70
2018-06-03T02:47:39.984Z,16.70
2018-06-03T02:50:07.527Z,16.70
2018-06-03T02:52:35.888Z,16.70
2018-06-03T02:55:03.405Z,16.70
2018-06-03T02:57:31.674Z,16.70
2018-06-03T02:59:59.213Z,16.70
2018-06-03T03:02:26.733Z,16.70
2018-06-03T03:04:54.250Z,16.70
2018-06-03T03:07:21.759Z,16.80
2018-06-03T03:09:49.298Z,16.80
2018-06-03T03:12:16.816Z,16.80
2018-06-03T03:14:44.362Z,16.80
2018-06-03T03:17:11.854Z,16.80
2018-06-03T03:19:39.397Z,16.90
2018-06-03T03:22:06.887Z,16.80
2018-06-03T03:24:34.540Z,16.80
2018-06-03T03:27:02.515Z,16.90
2018-06-03T03:29:30.014Z,16.90
2018-06-03T03:31:58.327Z,17.00
2018-06-03T03:34:25.836Z,17.00
2018-06-03T03:36:54.168Z,17.10
2018-06-03T03:39:21.674Z,17.00
2018-06-03T03:41:49.966Z,17.10
2018-06-03T03:44:18.753Z,17.20
2018-06-03T03:46:47.044Z,17.30
2018-06-03T03:49:14.573Z,17.20
2018-06-03T03:51:42.851Z,17.40
2018-06-03T03:54:11.174Z,17.40
2018-06-03T03:56:38.695Z,17.40
2018-06-03T03:59:07.022Z,17.50
2018-06-03T04:01:34.602Z,17.40
2018-06-03T04:04:02.228Z,17.50
2018-06-03T04:06:29.764Z,17.60
2018-06-03T04:08:57.360Z,17.60
2018-06-03T04:11:25.896Z,17.70
2018-06-03T04:13:54.902Z,17.70
2018-06-03T04:16:22.424Z,17.70
2018-06-03T04:18:52.199Z,17.80
2018-06-03T04:21:19.721Z,17.80
2018-06-03T04:23:48.609Z,17.90
2018-06-03T04:26:16.897Z,17.90
2018-06-03T04:28:44.435Z,17.90
2018-06-03T04:31:12.809Z,18.10
2018-06-03T04:33:41.166Z,18.10
2018-06-03T04:36:08.752Z,18.10
2018-06-03T04:38:37.047Z,18.20
2018-06-03T04:41:04.561Z,18.20
2018-06-03T04:43:32.808Z,18.30
2018-06-03T04:46:00.309Z,18.40
2018-06-03T04:48:27.833Z,18.40
2018-06-03T04:50:55.418Z,18.40
2018-06-03T04:53:22.951Z,18.50
2018-06-03T04:55:50.462Z,18.50
2018-06-03T04:58:18.741Z,18.60
2018-06-03T05:00:46.280Z,18.60
2018-06-03T05:03:14.551Z,18.70
2018-06-03T05:05:42.071Z,18.70
2018-06-03T05:08:09.585Z,18.70
2018-06-03T05:10:37.854Z,18.80
2018-06-03T05:13:06.126Z,18.80
2018-06-03T05:15:33.640Z,18.80
2018-06-03T05:18:01.132Z,18.90
2018-06-03T05:20:28.650Z,18.90
2018-06-03T05:22:56.155Z,18.90
2018-06-03T05:25:23.698Z,18.90
2018-06-03T05:27:51.310Z,19.00
2018-06-03T05:30:18.894Z,19.00
2018-06-03T05:32:46.550Z,19.10
2018-06-03T05:35:14.059Z,19.10
2018-06-03T05:37:42.336Z,19.20
2018-06-03T05:40:10.596Z,19.30
2018-06-03T05:42:38.121Z,19.30
2018-06-03T05:45:05.627Z,19.40
2018-06-03T05:47:33.148Z,19.50
2018-06-03T05:50:00.641Z,19.60
2018-06-03T05:52:29.772Z,19.60
2018-06-03T05:54:57.343Z,19.60
2018-06-03T05:57:24.943Z,19.60
2018-06-03T05:59:52.560Z,19.60
2018-06-03T06:02:20.132Z,19.60
2018-06-03T06:04:47.663Z,19.60
2018-06-03T06:07:15.172Z,19.60
2018-06-03T06:09:42.825Z,19.70
2018-06-03T06:12:10.468Z,19.80
2018-06-03T06:14:38.089Z,19.80
2018-06-03T06:17:06.353Z,19.90
2018-06-03T06:19:33.883Z,19.90
2018-06-03T06:22:02.125Z,19.90
2018-06-03T06:24:29.657Z,20.00
2018-06-03T06:26:58.661Z,20.20
2018-06-03T06:29:26.960Z,20.30
2018-06-03T06:31:55.208Z,20.60
2018-06-03T06:34:23.493Z,20.80
2018-06-03T06:36:51.151Z,20.80
2018-06-03T06:39:18.692Z,21.10
2018-06-03T06:41:46.970Z,21.80
2018-06-03T06:44:15.275Z,22.10
2018-06-03T06:46:42.819Z,22.10
2018-06-03T06:49:11.095Z,22.60
2018-06-03T06:51:39.375Z,22.90
2018-06-03T06:54:06.861Z,22.90
2018-06-03T06:56:34.374Z,23.00
2018-06-03T06:59:02.663Z,23.10
2018-06-03T07:01:30.933Z,23.10
2018-06-03T07:03:59.197Z,23.10
2018-06-03T07:06:26.765Z,23.10
2018-06-03T07:08:54.253Z,23.10
2018-06-03T07:11:21.753Z,23.00
2018-06-03T07:13:49.285Z,23.00
2018-06-03T07:16:16.801Z,23.00
2018-06-03T07:18:45.112Z,23.20
2018-06-03T07:21:12.777Z,23.20
2018-06-03T07:23:40.290Z,23.30
2018-06-03T07:26:07.800Z,23.40
2018-06-03T07:28:35.371Z,23.40
2018-06-03T07:31:03.039Z,23.30
2018-06-03T07:33:31.113Z,23.30
2018-06-03T07:35:58.634Z,23.30
2018-06-03T07:38:26.174Z,23.40
2018-06-03T07:40:54.462Z,23.80
2018-06-03T07:43:21.974Z,23.80
2018-06-03T07:45:49.498Z,24.00
2018-06-03T07:48:17.012Z,24.10
2018-06-03T07:50:44.552Z,24.00
2018-06-03T07:53:12.068Z,24.10
2018-06-03T07:55:39.580Z,24.10
2018-06-03T07:58:07.654Z,24.00
2018-06-03T08:00:35.289Z,23.80
2018-06-03T08:03:03.487Z,23.90
2018-06-03T08:05:31.002Z,24.00
2018-06-03T08:07:58.519Z,23.80
2018-06-03T08:10:26.867Z,23.50
2018-06-03T08:12:54.426Z,23.50
2018-06-03T08:15:22.588Z,23.40
2018-06-03T08:17:50.115Z,23.10
2018-06-03T08:20:17.641Z,23.00
2018-06-03T08:22:46.533Z,22.90
2018-06-03T08:25:14.802Z,23.00
2018-06-03T08:27:42.343Z,23.00
2018-06-03T08:30:09.846Z,23.10
2018-06-03T08:32:38.073Z,23.20
2018-06-03T08:35:05.616Z,23.40
2018-06-03T08:37:33.145Z,23.30
2018-06-03T08:40:01.363Z,23.40
2018-06-03T08:42:28.893Z,23.40
2018-06-03T08:44:56.409Z,23.40
2018-06-03T08:47:24.716Z,23.30
2018-06-03T08:49:53.058Z,23.50
2018-06-03T08:52:21.375Z,23.40
2018-06-03T08:54:48.949Z,23.40
2018-06-03T08:57:16.457Z,23.40
2018-06-03T08:59:44.739Z,23.70
2018-06-03T09:02:13.045Z,23.90
2018-06-03T09:04:40.683Z,23.80
2018-06-03T09:07:08.246Z,23.90
2018-06-03T09:09:35.845Z,24.00
2018-06-03T09:12:03.365Z,24.20
2018-06-03T09:14:30.883Z,24.40
2018-06-03T09:16:58.435Z,24.70
2018-06-03T09:19:25.938Z,24.70
2018-06-03T09:21:54.822Z,23.90
2018-06-03T09:24:23.131Z,23.40
2018-06-03T09:26:50.651Z,23.40
2018-06-03T09:29:18.958Z,22.80
2018-06-03T09:31:46.469Z,22.80
2018-06-03T09:34:13.989Z,22.80
2018-06-03T09:36:41.493Z,22.80
2018-06-03T09:39:09.790Z,23.30
2018-06-03T09:41:37.341Z,23.20
2018-06-03T09:44:05.714Z,23.80
2018-06-03T09:46:33.987Z,24.10
2018-06-03T09:49:02.318Z,24.30
2018-06-03T09:51:29.825Z,24.30
2018-06-03T09:53:58.112Z,24.20
2018-06-03T09:56:26.433Z,24.20
2018-06-03T09:58:53.964Z,24.20
2018-06-03T10:01:21.541Z,24.30
2018-06-03T10:03:49.826Z,24.10
2018-06-03T10:06:17.417Z,24.10
2018-06-03T10:08:44.999Z,24.10
2018-06-03T10:11:13.259Z,23.70
2018-06-03T10:13:40.765Z,23.70
2018-06-03T10:16:08.288Z,23.70
2018-06-03T10:18:35.785Z,23.90
2018-06-03T10:21:03.329Z,24.20
2018-06-03T10:23:30.860Z,24.60
2018-06-03T10:25:59.128Z,25.00
2018-06-03T10:28:26.675Z,25.00
2018-06-03T10:30:54.181Z,25.30
2018-06-03T10:33:22.519Z,25.00
2018-06-03T10:35:50.047Z,25.00
2018-06-03T10:38:17.610Z,25.00
2018-06-03T10:40:45.266Z,25.10
2018-06-03T10:43:12.834Z,25.10
2018-06-03T10:45:40.434Z,25.20
2018-06-03T10:48:08.747Z,25.70
2018-06-03T10:50:36.278Z,25.70
2018-06-03T10:53:04.538Z,25.50
2018-06-03T10:55:32.840Z,25.30
2018-06-03T10:58:00.368Z,25.30
2018-06-03T11:00:27.884Z,25.30
2018-06-03T11:02:55.402Z,25.50
2018-06-03T11:05:23.807Z,25.30
2018-06-03T11:07:51.411Z,25.30
2018-06-03T11:10:18.933Z,25.30
2018-06-03T11:12:46.592Z,25.00
2018-06-03T11:15:14.182Z,24.80
2018-06-03T11:17:41.756Z,24.50
2018-06-03T11:20:09.370Z,24.20
2018-06-03T11:22:36.959Z,24.20
2018-06-03T11:25:04.489Z,24.40
2018-06-03T11:27:32.764Z,24.20
2018-06-03T11:30:01.135Z,24.20
2018-06-03T11:32:28.717Z,24.10
2018-06-03T11:34:56.219Z,24.20
2018-06-03T11:37:53.711Z,24.20
2018-06-03T11:40:23.047Z,24.40
2018-06-03T11:42:51.605Z,24.60
2018-06-03T11:45:20.146Z,24.70
2018-06-03T11:47:49.428Z,24.60
2018-06-03T11:50:17.964Z,24.70
2018-06-03T11:52:46.602Z,24.80
2018-06-03T11:55:15.761Z,24.80
2018-06-03T11:58:00.931Z,24.90
2018-06-03T12:00:29.561Z,24.70
2018-06-03T12:02:58.184Z,24.70
2018-06-03T12:05:26.777Z,24.90
2018-06-03T12:07:55.431Z,24.90
2018-06-03T12:10:24.034Z,25.20
2018-06-03T12:12:52.626Z,25.70
2018-06-03T12:15:21.305Z,25.80
2018-06-03T12:17:49.850Z,25.80
2018-06-03T12:20:18.436Z,25.10
2018-06-03T12:22:47.041Z,24.80
2018-06-03T12:25:16.229Z,24.70
2018-06-03T12:30:13.214Z,24.70
2018-06-03T12:32:41.870Z,24.80
2018-06-03T12:35:10.484Z,24.90
2018-06-03T12:37:39.054Z,25.10
2018-06-03T12:40:07.640Z,25.40
2018-06-03T12:42:36.398Z,25.20
2018-06-03T12:45:05.003Z,25.10
2018-06-03T12:47:33.613Z,25.20
2018-06-03T12:50:02.203Z,25.40
2018-06-03T12:52:30.789Z,25.60
2018-06-03T12:54:59.321Z,25.90
2018-06-03T12:57:27.946Z,25.90
2018-06-03T12:59:56.496Z,25.80
2018-06-03T13:02:25.095Z,25.60
2018-06-03T13:04:54.390Z,25.40
2018-06-03T13:07:23.142Z,25.40
2018-06-03T13:09:51.751Z,25.40
2018-06-03T13:12:20.325Z,25.40
2018-06-03T13:14:48.939Z,25.50
2018-06-03T13:17:17.590Z,25.50
2018-06-03T13:19:46.159Z,25.60
2018-06-03T13:22:14.803Z,25.90
2018-06-03T13:24:43.521Z,26.00
2018-06-03T13:27:12.105Z,26.10
2018-06-03T13:29:40.678Z,26.00
2018-06-03T13:32:09.229Z,26.10
2018-06-03T13:34:37.805Z,26.00
2018-06-03T13:37:06.367Z,25.80
2018-06-03T13:39:34.929Z,25.90
2018-06-03T13:42:03.495Z,26.00
2018-06-03T13:44:32.127Z,26.30
2018-06-03T13:47:00.774Z,26.50
2018-06-03T13:49:29.381Z,26.50
2018-06-03T13:51:57.937Z,26.30
2018-06-03T13:54:26.489Z,26.40
2018-06-03T13:56:55.137Z,26.60
2018-06-03T13:59:23.905Z,26.90
2018-06-03T14:01:52.542Z,26.90
2018-06-03T14:04:21.105Z,26.70
2018-06-03T14:06:49.686Z,26.70
2018-06-03T14:09:18.279Z,26.80
2018-06-03T14:11:46.914Z,26.50
2018-06-03T14:14:15.472Z,26.50
2018-06-03T14:16:44.083Z,26.50
2018-06-03T14:19:12.632Z,26.40
2018-06-03T14:21:41.273Z,26.40
2018-06-03T14:24:09.881Z,26.70
2018-06-03T14:26:38.528Z,27.00
2018-06-03T14:29:07.081Z,27.40
2018-06-03T14:31:35.668Z,27.50
2018-06-03T14:34:04.214Z,27.50
2018-06-03T14:36:32.760Z,27.90
2018-06-03T14:39:01.407Z,27.90
2018-06-03T14:41:29.997Z,27.90
2018-06-03T14:43:58.594Z,27.50
2018-06-03T14:46:27.136Z,27.30
2018-06-03T14:48:55.711Z,27.10
2018-06-03T14:51:24.347Z,27.20
2018-06-03T14:53:52.971Z,27.30
2018-06-03T14:56:21.468Z,26.90
2018-06-03T14:58:49.976Z,26.40
2018-06-03T15:01:18.518Z,26.40
2018-06-03T15:03:47.152Z,26.20
2018-06-03T15:06:16.452Z,25.90
2018-06-03T15:08:45.004Z,26.00
2018-06-03T15:11:13.617Z,26.10
2018-06-03T15:13:42.212Z,26.20
2018-06-03T15:16:10.833Z,26.20
2018-06-03T15:18:39.418Z,26.40
2018-06-03T15:21:08.055Z,26.70
2018-06-03T15:23:36.665Z,26.60
2018-06-03T15:26:05.235Z,26.70
2018-06-03T15:28:33.787Z,26.70
2018-06-03T15:31:02.371Z,26.50
2018-06-03T15:33:30.993Z,26.30
2018-06-03T15:35:59.560Z,25.90
2018-06-03T15:38:28.226Z,25.70
2018-06-03T15:40:56.809Z,25.70
2018-06-03T15:43:25.423Z,25.70
2018-06-03T15:45:54.013Z,25.70
2018-06-03T15:48:22.723Z,25.80
2018-06-03T15:50:52.040Z,25.80
2018-06-03T15:53:20.612Z,25.70
2018-06-03T15:55:49.202Z,25.60
2018-06-03T15:58:17.791Z,25.50
2018-06-03T16:00:46.446Z,25.50
2018-06-03T16:03:15.796Z,25.50
2018-06-03T16:05:44.390Z,25.40
2018-06-03T16:08:12.954Z,25.20
2018-06-03T16:10:41.527Z,25.00
2018-06-03T16:13:10.179Z,24.90
2018-06-03T16:15:38.893Z,25.00
2018-06-03T16:18:07.552Z,25.10
2018-06-03T16:20:36.121Z,25.20
2018-06-03T16:23:04.856Z,25.40
2018-06-03T16:25:33.491Z,25.50
2018-06-03T16:28:02.114Z,25.70
2018-06-03T16:30:30.751Z,25.70
2018-06-03T16:32:59.317Z,25.70
2018-06-03T16:35:28.140Z,25.60
2018-06-03T16:37:56.802Z,25.70
2018-06-03T16:40:25.326Z,25.80
2018-06-03T16:45:22.160Z,25.80
2018-06-03T16:47:50.882Z,25.70
2018-06-03T16:50:20.220Z,25.70
2018-06-03T16:52:48.818Z,25.80
2018-06-03T16:55:17.424Z,26.20
2018-06-03T16:57:46.125Z,26.60
2018-06-03T17:02:42.877Z,27.80
2018-06-03T17:05:11.515Z,28.40
2018-06-03T17:07:40.102Z,29.00
2018-06-03T17:10:08.727Z,29.80
2018-06-03T17:12:37.317Z,30.40
2018-06-03T17:15:05.908Z,31.30
2018-06-03T17:17:34.504Z,32.30
2018-06-03T17:20:03.139Z,32.90
2018-06-03T17:22:31.731Z,33.30
2018-06-03T17:25:00.404Z,33.90
2018-06-03T17:27:30.445Z,33.60
2018-06-03T17:29:58.966Z,33.70
2018-06-03T17:32:28.308Z,33.50
2018-06-03T17:34:56.952Z,32.80
2018-06-03T17:37:25.546Z,33.00
2018-06-03T17:39:54.157Z,33.70
2018-06-03T17:42:22.710Z,33.50
2018-06-03T17:44:51.289Z,32.70
2018-06-03T17:47:19.793Z,33.00
2018-06-03T17:49:48.399Z,33.40
2018-06-03T17:52:16.964Z,33.60
2018-06-03T17:54:45.550Z,33.70
2018-06-03T17:57:14.079Z,33.70
2018-06-03T17:59:42.668Z,33.90
2018-06-03T18:02:11.256Z,33.80
2018-06-03T18:04:39.778Z,33.90
2018-06-03T18:07:08.490Z,34.20
2018-06-03T18:09:37.081Z,33.90
2018-06-03T18:12:05.723Z,33.70
2018-06-03T18:14:34.259Z,33.70
2018-06-03T18:17:02.915Z,33.70
2018-06-03T18:21:59.724Z,33.60
2018-06-03T18:24:28.311Z,33.50
2018-06-03T18:26:56.855Z,33.50
2018-06-03T18:29:25.446Z,33.60
2018-06-03T18:31:54.066Z,33.40
2018-06-03T18:34:22.625Z,33.30
2018-06-03T18:36:51.228Z,33.10
2018-06-03T18:39:19.888Z,33.20
2018-06-03T18:41:48.423Z,32.80
2018-06-03T18:44:16.972Z,32.40
2018-06-03T18:46:45.534Z,31.80
2018-06-03T18:49:14.111Z,30.60
2018-06-03T18:51:42.692Z,29.00
2018-06-03T18:54:11.477Z,27.70
2018-06-03T18:59:08.348Z,25.70
2018-06-03T19:01:36.914Z,24.90
2018-06-03T19:04:05.864Z,24.40
2018-06-03T19:06:34.459Z,23.90
2018-06-03T19:09:03.160Z,23.50
2018-06-03T19:11:31.759Z,23.10
2018-06-03T19:14:00.391Z,22.80
2018-06-03T19:16:28.990Z,22.50
2018-06-03T19:18:57.672Z,22.30
2018-06-03T19:21:26.316Z,22.10
2018-06-03T19:23:54.922Z,22.00
2018-06-03T19:26:23.593Z,21.80
2018-06-03T19:28:52.246Z,21.60
2018-06-03T19:31:20.998Z,21.50
2018-06-03T19:33:49.619Z,21.30
2018-06-03T19:36:18.301Z,21.20
2018-06-03T19:38:46.906Z,21.00
2018-06-03T19:41:15.532Z,20.80
2018-06-03T19:43:44.176Z,20.60
2018-06-03T19:46:12.860Z,20.40
2018-06-03T19:48:41.457Z,20.30
2018-06-03T19:51:10.607Z,20.20
2018-06-03T19:53:39.313Z,20.00
2018-06-03T19:56:08.023Z,19.90
2018-06-03T19:58:36.660Z,19.80
2018-06-03T20:01:05.337Z,19.60
2018-06-03T20:03:34.078Z,19.50
2018-06-03T20:06:02.767Z,19.40
2018-06-03T20:08:31.445Z,19.30
2018-06-03T20:11:00.083Z,19.20
2018-06-03T20:13:28.800Z,19.10
2018-06-03T20:15:57.520Z,19.10
2018-06-03T20:18:26.229Z,19.00
2018-06-03T20:20:54.832Z,18.90
2018-06-03T20:23:23.490Z,18.80
2018-06-03T20:25:52.226Z,18.70
2018-06-03T20:28:20.846Z,18.70
2018-06-03T20:30:49.554Z,18.60
2018-06-03T20:33:18.345Z,18.50
2018-06-03T20:35:47.668Z,18.50
2018-06-03T20:38:16.339Z,18.40
2018-06-03T20:40:44.969Z,18.30
2018-06-03T20:43:13.657Z,18.30
2018-06-03T20:45:42.456Z,18.20
2018-06-03T20:48:11.236Z,18.10
2018-06-03T20:50:39.967Z,18.10
2018-06-03T20:53:08.691Z,18.00
2018-06-03T20:55:37.360Z,18.00
2018-06-03T20:58:06.078Z,18.00
2018-06-03T21:00:34.771Z,17.90
2018-06-03T21:03:04.057Z,17.90
2018-06-03T21:05:32.680Z,17.90
2018-06-03T21:08:01.368Z,17.90
2018-06-03T21:10:30.106Z,17.80
2018-06-03T21:12:58.831Z,17.80
2018-06-03T21:15:27.512Z,17.70
2018-06-03T21:17:56.857Z,17.70
2018-06-03T21:20:25.495Z,17.70
2018-06-03T21:22:54.249Z,17.60
2018-06-03T21:25:23.025Z,17.50
2018-06-03T21:27:51.686Z,17.50
2018-06-03T21:30:20.381Z,17.50
2018-06-03T21:32:49.117Z,17.40
2018-06-03T21:35:17.771Z,17.40
2018-06-03T21:37:46.407Z,17.30
2018-06-03T21:40:15.037Z,17.30
2018-06-03T21:42:43.782Z,17.30
2018-06-03T21:45:12.399Z,17.20
2018-06-03T21:47:41.070Z,17.20
2018-06-03T21:50:09.782Z,17.10
2018-06-03T21:52:38.461Z,17.10
2018-06-03T21:55:07.107Z,17.10
2018-06-03T21:57:35.827Z,17.10
2018-06-03T22:00:05.098Z,17.00
2018-06-03T22:02:33.781Z,17.00
2018-06-03T22:05:02.506Z,17.00
2018-06-03T22:07:31.154Z,16.90
2018-06-03T22:10:00.573Z,16.90
2018-06-03T22:12:29.324Z,16.90
2018-06-03T22:14:58.141Z,16.80
2018-06-03T22:17:26.773Z,16.80
2018-06-03T22:19:55.384Z,16.70
2018-06-03T22:22:24.078Z,16.70
2018-06-03T22:24:52.740Z,16.70
2018-06-03T22:27:21.373Z,16.70
2018-06-03T22:29:49.993Z,16.60
2018-06-03T22:32:18.655Z,16.60
2018-06-03T22:34:47.312Z,16.60
2018-06-03T22:37:16.557Z,16.50
2018-06-03T22:39:45.158Z,16.50
2018-06-03T22:42:13.823Z,16.50
2018-06-03T22:44:42.502Z,16.40
2018-06-03T22:47:11.117Z,16.40
2018-06-03T22:49:39.720Z,16.40
2018-06-03T22:52:08.439Z,16.40
2018-06-03T22:54:37.166Z,16.40
2018-06-03T22:57:42.612Z,16.40
2018-06-03T23:02:43.269Z,16.30
2018-06-03T23:05:11.942Z,16.20
2018-06-03T23:07:40.559Z,16.20
2018-06-03T23:10:09.426Z,16.10
2018-06-03T23:12:38.176Z,16.10
2018-06-03T23:15:06.851Z,16.10
2018-06-03T23:17:36.821Z,16.10
2018-06-03T23:20:05.494Z,16.10
2018-06-03T23:22:34.178Z,16.00
2018-06-03T23:25:02.905Z,16.00
2018-06-03T23:27:31.705Z,16.00
2018-06-03T23:30:00.327Z,16.00
2018-06-03T23:32:29.010Z,16.00
2018-06-03T23:34:57.662Z,15.90
2018-06-03T23:37:26.315Z,15.90
2018-06-03T23:39:55.700Z,15.80
2018-06-03T23:42:24.398Z,15.80
2018-06-03T23:44:53.100Z,15.80
2018-06-03T23:47:21.795Z,15.70
2018-06-03T23:49:51.266Z,15.70
2018-06-03T23:52:19.853Z,15.70
2018-06-03T23:54:48.634Z,15.70
2018-06-03T23:57:17.340Z,15.70
2018-06-03T23:59:46.778Z,15.60
